createdAt,value
2017-01-19T00:00:06.328Z,74.9
2017-01-19T00:00:21.312Z,74.55
2017-01-19T00:00:36.034Z,74.61
2017-01-19T00:00:50.863Z,74.61
2017-01-19T00:01:05.630Z,74.41
2017-01-19T00:01:20.315Z,74.61
2017-01-19T00:01:35.085Z,74.61
2017-01-19T00:01:49.944Z,74.71
2017-01-19T00:02:04.714Z,74.32
2017-01-19T00:02:19.572Z,74.51
2017-01-19T00:02:34.393Z,74.16
2017-01-19T00:02:49.094Z,74.13
2017-01-19T00:03:03.807Z,74.03
2017-01-19T00:03:18.543Z,74.36
2017-01-19T00:03:33.147Z,74.03
2017-01-19T00:03:47.970Z,73.97
2017-01-19T00:04:02.770Z,73.94
2017-01-19T00:04:17.430Z,74.03
2017-01-19T00:04:32.183Z,74.36
2017-01-19T00:04:47.013Z,74.16
2017-01-19T00:05:01.881Z,74.16
2017-01-19T00:05:16.484Z,74.22
2017-01-19T00:05:31.268Z,73.88
2017-01-19T00:05:45.984Z,73.49
2017-01-19T00:06:00.696Z,73.68
2017-01-19T00:06:15.706Z,73.58
2017-01-19T00:06:31.097Z,73.58
2017-01-19T00:06:45.928Z,73.68
2017-01-19T00:07:00.627Z,73.58
2017-01-19T00:07:15.306Z,73.49
2017-01-19T00:07:30.016Z,73.2
2017-01-19T00:07:44.687Z,73.58
2017-01-19T00:07:59.240Z,73.39
2017-01-19T00:08:13.821Z,73.3
2017-01-19T00:08:28.567Z,73.65
2017-01-19T00:08:43.263Z,73.36
2017-01-19T00:08:57.886Z,73.1
2017-01-19T00:09:12.398Z,73.68
2017-01-19T00:09:26.995Z,73.01
2017-01-19T00:09:41.566Z,73.68
2017-01-19T00:09:56.418Z,73.01
2017-01-19T00:10:11.567Z,73.01
2017-01-19T00:10:27.148Z,73.01
2017-01-19T00:10:41.713Z,73.01
2017-01-19T00:10:56.204Z,73.1
2017-01-19T00:11:10.909Z,73.1
2017-01-19T00:11:25.660Z,73.49
2017-01-19T00:11:40.433Z,73.58
2017-01-19T00:11:55.099Z,73.68
2017-01-19T00:12:09.908Z,73.78
2017-01-19T00:12:24.491Z,73.68
2017-01-19T00:12:39.210Z,73.88
2017-01-19T00:12:53.963Z,73.58
2017-01-19T00:13:08.787Z,73.39
2017-01-19T00:13:23.459Z,73.1
2017-01-19T00:13:37.984Z,73.39
2017-01-19T00:13:52.752Z,73.2
2017-01-19T00:14:07.536Z,73.39
2017-01-19T00:14:22.229Z,73.2
2017-01-19T00:14:36.844Z,73.58
2017-01-19T00:14:51.739Z,73.49
2017-01-19T00:15:06.488Z,73.3
2017-01-19T00:15:21.357Z,73.39
2017-01-19T00:15:36.192Z,73.1
2017-01-19T00:15:50.926Z,73.58
2017-01-19T00:16:05.712Z,73.2
2017-01-19T00:16:20.604Z,73.49
2017-01-19T00:16:35.291Z,73.46
2017-01-19T00:16:50.024Z,73.46
2017-01-19T00:17:04.821Z,73.46
2017-01-19T00:17:19.660Z,73.36
2017-01-19T00:17:34.342Z,73.55
2017-01-19T00:17:49.044Z,73.55
2017-01-19T00:18:03.882Z,73.88
2017-01-19T00:18:18.637Z,73.36
2017-01-19T00:18:33.441Z,73.68
2017-01-19T00:18:48.195Z,73.39
2017-01-19T00:19:02.910Z,73.74
2017-01-19T00:19:17.551Z,73.74
2017-01-19T00:19:32.316Z,73.55
2017-01-19T00:19:46.929Z,73.65
2017-01-19T00:20:01.634Z,72.97
2017-01-19T00:20:16.410Z,73.36
2017-01-19T00:20:31.168Z,73.07
2017-01-19T00:20:45.928Z,73.36
2017-01-19T00:21:00.666Z,73.16
2017-01-19T00:21:15.325Z,73.07
2017-01-19T00:21:30.105Z,73.36
2017-01-19T00:21:44.733Z,72.88
2017-01-19T00:21:59.388Z,72.68
2017-01-19T00:22:14.131Z,72.59
2017-01-19T00:22:28.703Z,72.39
2017-01-19T00:22:43.562Z,72.59
2017-01-19T00:22:58.327Z,71.91
2017-01-19T00:23:12.967Z,71.62
2017-01-19T00:23:27.649Z,71.72
2017-01-19T00:23:42.432Z,72.2
2017-01-19T00:23:57.193Z,71.62
2017-01-19T00:24:11.989Z,71.04
2017-01-19T00:24:26.618Z,71.43
2017-01-19T00:24:41.336Z,70.37
2017-01-19T00:24:56.109Z,70.09
2017-01-19T00:25:10.875Z,70.18
2017-01-19T00:25:26.408Z,69.89
2017-01-19T00:25:40.970Z,68.93
2017-01-19T00:25:57.919Z,68.84
2017-01-19T00:26:12.670Z,68.44
2017-01-19T00:26:27.309Z,68.54
2017-01-19T00:26:41.890Z,68.16
2017-01-19T00:26:56.603Z,67.87
2017-01-19T00:27:11.443Z,67.68
2017-01-19T00:27:26.270Z,67
2017-01-19T00:27:41.032Z,67
2017-01-19T00:27:55.783Z,67.49
2017-01-19T00:28:10.657Z,67
2017-01-19T00:28:25.403Z,66.42
2017-01-19T00:28:40.128Z,66.52
2017-01-19T00:28:54.912Z,66.14
2017-01-19T00:29:09.768Z,65.66
2017-01-19T00:29:24.601Z,66.14
2017-01-19T00:29:39.165Z,65.85
2017-01-19T00:29:53.959Z,65.66
2017-01-19T00:30:08.605Z,65.46
2017-01-19T00:30:23.445Z,65.17
2017-01-19T00:30:38.152Z,65.08
2017-01-19T00:30:53.003Z,64.79
2017-01-19T00:31:07.758Z,64.98
2017-01-19T00:31:22.536Z,64.79
2017-01-19T00:31:37.647Z,64.21
2017-01-19T00:31:52.405Z,64.5
2017-01-19T00:32:07.004Z,64.12
2017-01-19T00:32:21.808Z,63.44
2017-01-19T00:32:36.380Z,63.44
2017-01-19T00:32:51.159Z,63.44
2017-01-19T00:33:05.995Z,63.34
2017-01-19T00:33:20.746Z,62.77
2017-01-19T00:33:35.538Z,62.48
2017-01-19T00:33:50.463Z,62.48
2017-01-19T00:34:05.359Z,62.67
2017-01-19T00:34:20.270Z,62.48
2017-01-19T00:34:35.184Z,62.67
2017-01-19T00:34:50.058Z,62.29
2017-01-19T00:35:04.784Z,62.57
2017-01-19T00:35:19.427Z,62.19
2017-01-19T00:35:34.103Z,62.19
2017-01-19T00:35:51.183Z,62
2017-01-19T00:36:05.719Z,62.09
2017-01-19T00:36:20.457Z,62.09
2017-01-19T00:36:34.946Z,61.9
2017-01-19T00:36:49.698Z,61.9
2017-01-19T00:37:05.010Z,62.09
2017-01-19T00:37:19.749Z,62
2017-01-19T00:37:34.424Z,61.71
2017-01-19T00:37:49.044Z,62
2017-01-19T00:38:04.448Z,62.09
2017-01-19T00:38:19.185Z,61.9
2017-01-19T00:38:33.906Z,61.8
2017-01-19T00:38:48.590Z,61.9
2017-01-19T00:39:03.360Z,62.09
2017-01-19T00:39:18.050Z,62
2017-01-19T00:39:32.761Z,61.9
2017-01-19T00:39:47.516Z,62.09
2017-01-19T00:40:02.420Z,61.9
2017-01-19T00:40:17.156Z,62
2017-01-19T00:40:32.196Z,62
2017-01-19T00:40:47.010Z,62
2017-01-19T00:41:01.849Z,62
2017-01-19T00:41:17.350Z,62.09
2017-01-19T00:41:32.066Z,62.09
2017-01-19T00:41:46.926Z,62.09
2017-01-19T00:42:01.573Z,62.19
2017-01-19T00:42:16.293Z,61.9
2017-01-19T00:42:31.137Z,62
2017-01-19T00:42:45.927Z,61.61
2017-01-19T00:43:00.695Z,61.61
2017-01-19T00:43:15.507Z,61.74
2017-01-19T00:43:30.303Z,61.83
2017-01-19T00:43:44.891Z,62.12
2017-01-19T00:43:59.628Z,61.9
2017-01-19T00:44:14.604Z,61.9
2017-01-19T00:44:29.464Z,62.03
2017-01-19T00:44:44.156Z,62
2017-01-19T00:44:58.913Z,62.12
2017-01-19T00:45:20.658Z,61.74
2017-01-19T00:45:35.320Z,62.12
2017-01-19T00:45:49.941Z,61.93
2017-01-19T00:46:04.731Z,62.7
2017-01-19T00:46:21.869Z,62.6
2017-01-19T00:46:36.688Z,62.41
2017-01-19T00:46:51.409Z,62.6
2017-01-19T00:47:06.149Z,62.7
2017-01-19T00:47:22.157Z,62.6
2017-01-19T00:47:36.945Z,62.7
2017-01-19T00:47:51.630Z,62.99
2017-01-19T00:48:06.372Z,62.99
2017-01-19T00:48:21.197Z,62.99
2017-01-19T00:48:37.373Z,62.7
2017-01-19T00:48:52.074Z,63.18
2017-01-19T00:49:09.211Z,62.99
2017-01-19T00:49:25.422Z,62.99
2017-01-19T00:49:40.384Z,62.9
2017-01-19T00:49:55.186Z,62.87
2017-01-19T00:50:09.966Z,62.67
2017-01-19T00:50:24.653Z,62.8
2017-01-19T00:50:39.337Z,62.99
2017-01-19T00:50:54.084Z,62.99
2017-01-19T00:51:08.768Z,62.77
2017-01-19T00:51:23.638Z,63.18
2017-01-19T00:51:38.481Z,62.7
2017-01-19T00:51:53.050Z,63.18
2017-01-19T00:52:07.594Z,63.18
2017-01-19T00:52:22.346Z,63.18
2017-01-19T00:52:37.233Z,63.18
2017-01-19T00:52:51.920Z,63.25
2017-01-19T00:53:06.692Z,63.18
2017-01-19T00:53:21.411Z,63.18
2017-01-19T00:53:36.134Z,63.15
2017-01-19T00:53:50.943Z,63.15
2017-01-19T00:54:05.430Z,63.38
2017-01-19T00:54:20.271Z,63.15
2017-01-19T00:54:35.030Z,63.09
2017-01-19T00:54:49.890Z,63.09
2017-01-19T00:55:04.482Z,63.18
2017-01-19T00:55:19.167Z,63.18
2017-01-19T00:55:34.329Z,63.18
2017-01-19T00:55:49.193Z,63.18
2017-01-19T00:56:03.926Z,63.34
2017-01-19T00:56:18.857Z,63.28
2017-01-19T00:56:33.531Z,63.28
2017-01-19T00:56:48.248Z,63.25
2017-01-19T00:57:02.984Z,64.34
2017-01-19T00:57:17.711Z,64.69
2017-01-19T00:57:33.906Z,64.34
2017-01-19T00:57:48.591Z,63.95
2017-01-19T00:58:03.435Z,64.02
2017-01-19T00:58:18.168Z,63.76
2017-01-19T00:58:32.912Z,64.15
2017-01-19T00:58:47.572Z,63.92
2017-01-19T00:59:02.339Z,64.02
2017-01-19T00:59:17.118Z,63.64
2017-01-19T00:59:31.840Z,63.34
2017-01-19T00:59:46.453Z,63.76
2017-01-19T01:00:01.236Z,63.76
2017-01-19T01:00:16.059Z,64.05
2017-01-19T01:00:31.031Z,64.21
2017-01-19T01:00:45.777Z,64.02
2017-01-19T01:01:00.525Z,63.54
2017-01-19T01:01:15.234Z,63.73
2017-01-19T01:01:30.092Z,63.64
2017-01-19T01:01:44.830Z,63.57
2017-01-19T01:01:59.603Z,63.67
2017-01-19T01:02:14.292Z,63.64
2017-01-19T01:02:29.086Z,63.28
2017-01-19T01:02:43.831Z,63.38
2017-01-19T01:02:58.512Z,63.44
2017-01-19T01:03:14.810Z,63.57
2017-01-19T01:03:29.754Z,63.25
2017-01-19T01:03:44.465Z,63.47
2017-01-19T01:03:59.286Z,63.38
2017-01-19T01:04:14.055Z,63.44
2017-01-19T01:04:28.938Z,63.15
2017-01-19T01:04:43.907Z,63.25
2017-01-19T01:04:58.826Z,63.28
2017-01-19T01:05:14.249Z,63.38
2017-01-19T01:05:29.144Z,63.28
2017-01-19T01:05:44.036Z,63.25
2017-01-19T01:06:00.197Z,63.34
2017-01-19T01:06:15.078Z,63.34
2017-01-19T01:06:30.055Z,63.25
2017-01-19T01:06:45.004Z,63.34
2017-01-19T01:07:00.010Z,63.38
2017-01-19T01:07:16.174Z,63.18
2017-01-19T01:07:32.177Z,63.44
2017-01-19T01:07:47.081Z,63.06
2017-01-19T01:08:02.011Z,63.34
2017-01-19T01:08:16.951Z,63.44
2017-01-19T01:08:31.903Z,63.15
2017-01-19T01:08:46.871Z,63.25
2017-01-19T01:09:01.783Z,63.25
2017-01-19T01:09:16.776Z,63.54
2017-01-19T01:09:31.773Z,63.25
2017-01-19T01:09:46.758Z,63.38
2017-01-19T01:10:01.657Z,63.25
2017-01-19T01:10:16.576Z,63.57
2017-01-19T01:10:31.510Z,64.25
2017-01-19T01:10:46.672Z,64.02
2017-01-19T01:11:01.608Z,64.15
2017-01-19T01:11:16.560Z,63.67
2017-01-19T01:11:31.526Z,63.38
2017-01-19T01:11:46.425Z,63.82
2017-01-19T01:12:01.485Z,64.15
2017-01-19T01:12:16.404Z,64.02
2017-01-19T01:12:31.333Z,63.64
2017-01-19T01:12:46.197Z,63.54
2017-01-19T01:13:01.055Z,63.73
2017-01-19T01:13:15.910Z,63.34
2017-01-19T01:13:30.706Z,63.73
2017-01-19T01:13:45.590Z,63.67
2017-01-19T01:14:00.332Z,63.67
2017-01-19T01:14:15.034Z,63.54
2017-01-19T01:14:29.796Z,64.02
2017-01-19T01:14:44.512Z,64.21
2017-01-19T01:14:59.927Z,64.05
2017-01-19T01:15:14.681Z,63.54
2017-01-19T01:15:29.453Z,63.57
2017-01-19T01:15:44.201Z,63.44
2017-01-19T01:15:58.940Z,63.44
2017-01-19T01:16:13.795Z,63.64
2017-01-19T01:16:28.671Z,63.54
2017-01-19T01:16:43.365Z,63.06
2017-01-19T01:16:58.189Z,63.25
2017-01-19T01:17:12.862Z,63.34
2017-01-19T01:17:27.796Z,63.64
2017-01-19T01:17:42.455Z,63.25
2017-01-19T01:17:57.142Z,63.25
2017-01-19T01:18:11.903Z,63.25
2017-01-19T01:18:26.573Z,63.34
2017-01-19T01:18:41.156Z,63.25
2017-01-19T01:18:55.945Z,63.15
2017-01-19T01:19:10.913Z,63.15
2017-01-19T01:19:28.852Z,63.15
2017-01-19T01:19:43.664Z,63.34
2017-01-19T01:19:58.501Z,63.34
2017-01-19T01:20:13.177Z,63.34
2017-01-19T01:20:27.675Z,63.25
2017-01-19T01:20:44.729Z,64.02
2017-01-19T01:20:59.387Z,64.59
2017-01-19T01:21:14.192Z,64.02
2017-01-19T01:21:28.856Z,63.73
2017-01-19T01:21:45.475Z,63.64
2017-01-19T01:22:00.299Z,63.54
2017-01-19T01:22:14.854Z,63.54
2017-01-19T01:22:29.411Z,63.44
2017-01-19T01:22:44.013Z,63.64
2017-01-19T01:22:59.037Z,63.64
2017-01-19T01:23:13.863Z,63.67
2017-01-19T01:23:28.741Z,63.76
2017-01-19T01:23:43.653Z,63.34
2017-01-19T01:23:58.524Z,63.64
2017-01-19T01:24:13.387Z,63.54
2017-01-19T01:24:28.000Z,63.64
2017-01-19T01:24:42.693Z,63.64
2017-01-19T01:24:59.562Z,63.25
2017-01-19T01:25:14.271Z,63.54
2017-01-19T01:25:29.110Z,63.34
2017-01-19T01:25:44.374Z,63.25
2017-01-19T01:25:59.194Z,63.25
2017-01-19T01:26:13.941Z,63.34
2017-01-19T01:26:28.705Z,63.64
2017-01-19T01:26:43.513Z,63.76
2017-01-19T01:26:59.449Z,64.21
2017-01-19T01:27:14.162Z,63.54
2017-01-19T01:27:28.876Z,63.64
2017-01-19T01:27:43.601Z,63.54
2017-01-19T01:27:58.193Z,64.12
2017-01-19T01:28:13.041Z,63.82
2017-01-19T01:28:29.903Z,64.12
2017-01-19T01:28:44.386Z,64.21
2017-01-19T01:29:03.296Z,64.31
2017-01-19T01:29:18.061Z,64.31
2017-01-19T01:29:32.743Z,64.02
2017-01-19T01:29:47.291Z,64.12
2017-01-19T01:30:03.212Z,64.12
2017-01-19T01:30:18.043Z,64.21
2017-01-19T01:30:32.916Z,64.02
2017-01-19T01:30:49.554Z,64.12
2017-01-19T01:31:04.236Z,64.02
2017-01-19T01:31:18.836Z,64.02
2017-01-19T01:31:33.649Z,63.76
2017-01-19T01:31:49.629Z,64.02
2017-01-19T01:32:04.517Z,64.02
2017-01-19T01:32:19.104Z,64.21
2017-01-19T01:32:33.804Z,64.15
2017-01-19T01:32:48.411Z,63.92
2017-01-19T01:33:03.183Z,63.92
2017-01-19T01:33:18.609Z,64.12
2017-01-19T01:33:33.335Z,64.25
2017-01-19T01:33:48.099Z,64.25
2017-01-19T01:34:02.848Z,64.05
2017-01-19T01:34:17.459Z,64.25
2017-01-19T01:34:32.014Z,64.12
2017-01-19T01:34:46.757Z,63.82
2017-01-19T01:35:01.497Z,64.15
2017-01-19T01:35:16.245Z,64.21
2017-01-19T01:35:30.848Z,64.05
2017-01-19T01:35:45.622Z,64.12
2017-01-19T01:36:00.389Z,64.12
2017-01-19T01:36:15.910Z,64.05
2017-01-19T01:36:30.746Z,63.47
2017-01-19T01:36:45.484Z,63.67
2017-01-19T01:37:00.320Z,63.57
2017-01-19T01:37:15.612Z,64.12
2017-01-19T01:37:30.370Z,64.15
2017-01-19T01:37:45.034Z,64.21
2017-01-19T01:38:00.085Z,63.82
2017-01-19T01:38:14.919Z,63.85
2017-01-19T01:38:29.538Z,63.76
2017-01-19T01:38:44.352Z,64.15
2017-01-19T01:38:59.066Z,63.92
2017-01-19T01:39:13.785Z,63.64
2017-01-19T01:39:28.534Z,63.67
2017-01-19T01:39:43.305Z,64.02
2017-01-19T01:39:58.088Z,64.15
2017-01-19T01:40:12.870Z,64.02
2017-01-19T01:40:27.532Z,63.95
2017-01-19T01:40:42.205Z,64.15
2017-01-19T01:40:57.024Z,64.05
2017-01-19T01:41:11.903Z,64.15
2017-01-19T01:41:26.747Z,64.43
2017-01-19T01:41:41.391Z,63.95
2017-01-19T01:41:56.072Z,63.95
2017-01-19T01:42:10.901Z,64.15
2017-01-19T01:42:25.722Z,64.63
2017-01-19T01:42:40.426Z,64.25
2017-01-19T01:42:55.409Z,64.21
2017-01-19T01:43:10.009Z,63.95
2017-01-19T01:43:24.620Z,64.43
2017-01-19T01:43:39.342Z,64.63
2017-01-19T01:43:54.037Z,63.85
2017-01-19T01:44:08.824Z,64.15
2017-01-19T01:44:23.454Z,63.95
2017-01-19T01:44:38.232Z,64.34
2017-01-19T01:44:52.905Z,64.43
2017-01-19T01:45:07.743Z,64.43
2017-01-19T01:45:22.388Z,63.67
2017-01-19T01:45:37.175Z,64.43
2017-01-19T01:45:51.740Z,64.25
2017-01-19T01:46:06.432Z,64.34
2017-01-19T01:46:21.094Z,64.25
2017-01-19T01:46:35.715Z,64.43
2017-01-19T01:46:50.597Z,64.53
2017-01-19T01:47:07.512Z,64.69
2017-01-19T01:47:22.427Z,64.12
2017-01-19T01:47:37.145Z,64.69
2017-01-19T01:47:51.861Z,64.25
2017-01-19T01:48:06.639Z,64.5
2017-01-19T01:48:21.373Z,64.43
2017-01-19T01:48:36.022Z,64.43
2017-01-19T01:48:50.858Z,64.31
2017-01-19T01:49:06.435Z,64.21
2017-01-19T01:49:21.151Z,64.31
2017-01-19T01:49:36.023Z,63.82
2017-01-19T01:49:50.787Z,63.85
2017-01-19T01:50:05.542Z,64.12
2017-01-19T01:50:20.200Z,63.95
2017-01-19T01:50:36.156Z,63.92
2017-01-19T01:50:50.863Z,63.73
2017-01-19T01:51:05.662Z,64.21
2017-01-19T01:51:20.340Z,64.31
2017-01-19T01:51:35.038Z,64.12
2017-01-19T01:51:49.649Z,64.21
2017-01-19T01:52:04.302Z,64.5
2017-01-19T01:52:19.041Z,64.43
2017-01-19T01:52:34.449Z,64.4
2017-01-19T01:52:49.237Z,64.15
2017-01-19T01:53:03.843Z,64.31
2017-01-19T01:53:18.615Z,64.34
2017-01-19T01:53:33.295Z,64.31
2017-01-19T01:53:47.964Z,64.31
2017-01-19T01:54:02.695Z,64.4
2017-01-19T01:54:17.366Z,64.43
2017-01-19T01:54:32.147Z,64.34
2017-01-19T01:54:46.953Z,64.34
2017-01-19T01:55:01.635Z,64.4
2017-01-19T01:55:16.523Z,64.21
2017-01-19T01:55:31.366Z,63.76
2017-01-19T01:55:46.159Z,64.02
2017-01-19T01:56:01.070Z,64.02
2017-01-19T01:56:15.902Z,64.05
2017-01-19T01:56:30.691Z,64.12
2017-01-19T01:56:45.539Z,64.02
2017-01-19T01:57:00.209Z,64.21
2017-01-19T01:57:14.864Z,64.02
2017-01-19T01:57:29.590Z,63.92
2017-01-19T01:57:44.356Z,64.02
2017-01-19T01:57:59.099Z,64.02
2017-01-19T01:58:13.773Z,64.02
2017-01-19T01:58:28.620Z,63.92
2017-01-19T01:58:43.231Z,64.05
2017-01-19T01:58:57.968Z,64.15
2017-01-19T01:59:12.584Z,63.95
2017-01-19T01:59:27.509Z,64.02
2017-01-19T01:59:42.266Z,64.05
2017-01-19T01:59:56.999Z,63.64
2017-01-19T02:00:11.717Z,63.54
2017-01-19T02:00:26.315Z,63.57
2017-01-19T02:00:41.066Z,63.67
2017-01-19T02:00:55.750Z,63.73
2017-01-19T02:01:10.446Z,63.44
2017-01-19T02:01:25.208Z,63.34
2017-01-19T02:01:39.926Z,63.44
2017-01-19T02:01:54.415Z,63.57
2017-01-19T02:02:09.081Z,63.76
2017-01-19T02:02:23.971Z,63.54
2017-01-19T02:02:38.771Z,63.67
2017-01-19T02:02:53.428Z,63.47
2017-01-19T02:03:08.122Z,63.67
2017-01-19T02:03:22.685Z,63.67
2017-01-19T02:03:37.292Z,64.15
2017-01-19T02:03:52.149Z,64.05
2017-01-19T02:04:06.849Z,64.15
2017-01-19T02:04:21.652Z,63.95
2017-01-19T02:04:36.353Z,64.05
2017-01-19T02:04:51.121Z,64.5
2017-01-19T02:05:05.888Z,64.12
2017-01-19T02:05:20.717Z,64.31
2017-01-19T02:05:35.459Z,64.69
2017-01-19T02:05:50.189Z,64.92
2017-01-19T02:06:04.941Z,65.2
2017-01-19T02:06:19.563Z,64.53
2017-01-19T02:06:34.306Z,64.82
2017-01-19T02:06:49.125Z,64.89
2017-01-19T02:07:03.774Z,64.79
2017-01-19T02:07:18.580Z,65.01
2017-01-19T02:07:33.453Z,64.73
2017-01-19T02:07:48.145Z,64.59
2017-01-19T02:08:03.221Z,64.43
2017-01-19T02:08:17.998Z,64.73
2017-01-19T02:08:32.762Z,64.59
2017-01-19T02:08:47.477Z,64.59
2017-01-19T02:09:02.247Z,64.31
2017-01-19T02:09:16.904Z,64.21
2017-01-19T02:09:31.622Z,65.01
2017-01-19T02:09:46.266Z,64.5
2017-01-19T02:10:01.006Z,64.69
2017-01-19T02:10:15.847Z,64.82
2017-01-19T02:10:30.816Z,64.89
2017-01-19T02:10:45.602Z,64.98
2017-01-19T02:11:00.337Z,64.82
2017-01-19T02:11:15.456Z,64.79
2017-01-19T02:11:30.285Z,64.98
2017-01-19T02:11:45.113Z,64.98
2017-01-19T02:12:00.077Z,64.79
2017-01-19T02:12:14.961Z,65.01
2017-01-19T02:12:29.655Z,64.89
2017-01-19T02:12:44.311Z,64.89
2017-01-19T02:12:59.039Z,64.89
2017-01-19T02:13:13.828Z,64.89
2017-01-19T02:13:28.470Z,65.01
2017-01-19T02:13:43.142Z,64.5
2017-01-19T02:13:57.982Z,65.11
2017-01-19T02:14:12.606Z,65.75
2017-01-19T02:14:27.326Z,64.98
2017-01-19T02:14:42.005Z,65.46
2017-01-19T02:14:56.858Z,65.59
2017-01-19T02:15:11.556Z,65.27
2017-01-19T02:15:26.538Z,65.08
2017-01-19T02:15:41.289Z,65.69
2017-01-19T02:15:56.097Z,65.27
2017-01-19T02:16:10.832Z,65.17
2017-01-19T02:16:25.613Z,65.78
2017-01-19T02:16:40.387Z,65.5
2017-01-19T02:16:54.924Z,65.88
2017-01-19T02:17:09.731Z,65.75
2017-01-19T02:17:24.358Z,65.94
2017-01-19T02:17:39.173Z,66.07
2017-01-19T02:17:53.713Z,65.66
2017-01-19T02:18:08.382Z,65.56
2017-01-19T02:18:23.107Z,65.59
2017-01-19T02:18:37.908Z,66.04
2017-01-19T02:18:52.744Z,65.69
2017-01-19T02:19:07.465Z,65.78
2017-01-19T02:19:22.113Z,65.85
2017-01-19T02:19:36.956Z,65.94
2017-01-19T02:19:51.553Z,65.66
2017-01-19T02:20:06.286Z,65.75
2017-01-19T02:20:21.029Z,65.27
2017-01-19T02:20:35.707Z,65.88
2017-01-19T02:20:50.391Z,66.04
2017-01-19T02:21:05.299Z,65.75
2017-01-19T02:21:20.077Z,65.66
2017-01-19T02:21:35.066Z,65.85
2017-01-19T02:21:49.837Z,65.17
2017-01-19T02:22:04.494Z,65.27
2017-01-19T02:22:19.192Z,65.46
2017-01-19T02:22:33.959Z,65.75
2017-01-19T02:22:48.634Z,65.94
2017-01-19T02:23:03.172Z,65.75
2017-01-19T02:23:17.901Z,65.46
2017-01-19T02:23:32.612Z,65.37
2017-01-19T02:23:47.141Z,65.46
2017-01-19T02:24:02.100Z,65.85
2017-01-19T02:24:16.739Z,65.75
2017-01-19T02:24:31.479Z,65.85
2017-01-19T02:24:46.248Z,65.85
2017-01-19T02:25:00.943Z,66.14
2017-01-19T02:25:15.621Z,65.94
2017-01-19T02:25:30.335Z,65.94
2017-01-19T02:25:45.043Z,66.24
2017-01-19T02:25:59.717Z,66.14
2017-01-19T02:26:15.257Z,66.04
2017-01-19T02:26:29.884Z,66.14
2017-01-19T02:26:44.582Z,66.14
2017-01-19T02:26:59.249Z,66.04
2017-01-19T02:27:13.925Z,66.42
2017-01-19T02:27:28.615Z,66.33
2017-01-19T02:27:43.136Z,66.24
2017-01-19T02:27:57.769Z,66.14
2017-01-19T02:28:12.511Z,66.24
2017-01-19T02:28:27.273Z,66.04
2017-01-19T02:28:41.982Z,65.94
2017-01-19T02:28:56.541Z,66.24
2017-01-19T02:29:11.211Z,65.85
2017-01-19T02:29:25.994Z,65.85
2017-01-19T02:29:40.792Z,66.33
2017-01-19T02:29:55.486Z,65.75
2017-01-19T02:30:10.325Z,65.94
2017-01-19T02:30:25.202Z,65.85
2017-01-19T02:30:39.823Z,65.66
2017-01-19T02:30:54.504Z,65.66
2017-01-19T02:31:09.259Z,65.94
2017-01-19T02:31:23.919Z,65.85
2017-01-19T02:31:38.591Z,65.85
2017-01-19T02:31:53.356Z,65.94
2017-01-19T02:32:08.091Z,65.75
2017-01-19T02:32:22.811Z,65.85
2017-01-19T02:32:37.719Z,65.66
2017-01-19T02:32:52.236Z,65.85
2017-01-19T02:33:06.919Z,66.14
2017-01-19T02:33:21.635Z,65.75
2017-01-19T02:33:36.298Z,65.66
2017-01-19T02:33:51.026Z,65.75
2017-01-19T02:34:05.885Z,66.24
2017-01-19T02:34:20.479Z,65.75
2017-01-19T02:34:35.217Z,65.66
2017-01-19T02:34:49.870Z,65.85
2017-01-19T02:35:04.617Z,65.56
2017-01-19T02:35:19.328Z,65.85
2017-01-19T02:35:33.979Z,65.75
2017-01-19T02:35:48.800Z,65.85
2017-01-19T02:36:03.481Z,65.75
2017-01-19T02:36:18.229Z,65.75
2017-01-19T02:36:32.915Z,65.94
2017-01-19T02:36:47.670Z,65.94
2017-01-19T02:37:02.351Z,65.75
2017-01-19T02:37:16.876Z,65.56
2017-01-19T02:37:31.747Z,65.66
2017-01-19T02:37:46.524Z,65.27
2017-01-19T02:38:01.329Z,65.46
2017-01-19T02:38:16.027Z,64.98
2017-01-19T02:38:30.640Z,65.17
2017-01-19T02:38:45.676Z,65.56
2017-01-19T02:39:00.451Z,65.75
2017-01-19T02:39:15.101Z,65.46
2017-01-19T02:39:30.041Z,65.56
2017-01-19T02:39:44.735Z,65.46
2017-01-19T02:39:59.526Z,65.27
2017-01-19T02:40:14.095Z,65.37
2017-01-19T02:40:28.881Z,65.27
2017-01-19T02:40:43.570Z,65.27
2017-01-19T02:40:58.118Z,65.46
2017-01-19T02:41:12.886Z,65.94
2017-01-19T02:41:27.900Z,65.08
2017-01-19T02:41:42.636Z,65.37
2017-01-19T02:41:57.336Z,65.66
2017-01-19T02:42:12.017Z,65.08
2017-01-19T02:42:26.675Z,64.98
2017-01-19T02:42:41.406Z,65.75
2017-01-19T02:42:56.137Z,65.46
2017-01-19T02:43:10.909Z,64.98
2017-01-19T02:43:25.717Z,65.17
2017-01-19T02:43:40.285Z,65.17
2017-01-19T02:43:55.077Z,65.37
2017-01-19T02:44:09.861Z,65.94
2017-01-19T02:44:24.600Z,65.94
2017-01-19T02:44:39.258Z,65.94
2017-01-19T02:44:53.848Z,65.46
2017-01-19T02:45:08.613Z,65.46
2017-01-19T02:45:23.307Z,65.56
2017-01-19T02:45:38.049Z,65.17
2017-01-19T02:45:52.903Z,64.98
2017-01-19T02:46:07.666Z,65.56
2017-01-19T02:46:22.446Z,65.17
2017-01-19T02:46:37.257Z,65.66
2017-01-19T02:46:51.998Z,65.75
2017-01-19T02:47:06.859Z,65.46
2017-01-19T02:47:21.713Z,65.17
2017-01-19T02:47:36.406Z,65.56
2017-01-19T02:47:51.060Z,65.75
2017-01-19T02:48:05.717Z,65.56
2017-01-19T02:48:20.469Z,65.37
2017-01-19T02:48:35.270Z,65.56
2017-01-19T02:48:50.062Z,65.56
2017-01-19T02:49:04.697Z,65.66
2017-01-19T02:49:19.516Z,65.08
2017-01-19T02:49:34.117Z,65.08
2017-01-19T02:49:49.214Z,65.08
2017-01-19T02:50:03.867Z,65.17
2017-01-19T02:50:18.487Z,65.37
2017-01-19T02:50:33.154Z,65.08
2017-01-19T02:50:47.896Z,65.17
2017-01-19T02:51:02.791Z,65.56
2017-01-19T02:51:17.447Z,65.56
2017-01-19T02:51:32.205Z,65.37
2017-01-19T02:51:46.999Z,65.08
2017-01-19T02:52:01.864Z,65.08
2017-01-19T02:52:16.656Z,65.17
2017-01-19T02:52:31.492Z,65.56
2017-01-19T02:52:46.136Z,65.66
2017-01-19T02:53:00.723Z,65.27
2017-01-19T02:53:15.392Z,65.46
2017-01-19T02:53:30.057Z,65.46
2017-01-19T02:53:44.777Z,65.56
2017-01-19T02:53:59.530Z,65.27
2017-01-19T02:54:14.358Z,65.75
2017-01-19T02:54:29.056Z,66.04
2017-01-19T02:54:43.706Z,65.94
2017-01-19T02:54:58.531Z,66.24
2017-01-19T02:55:13.181Z,66.14
2017-01-19T02:55:27.885Z,65.75
2017-01-19T02:55:42.581Z,65.66
2017-01-19T02:55:57.261Z,65.75
2017-01-19T02:56:11.880Z,65.75
2017-01-19T02:56:26.859Z,65.94
2017-01-19T02:56:41.461Z,65.66
2017-01-19T02:56:56.220Z,65.17
2017-01-19T02:57:10.951Z,65.46
2017-01-19T02:57:25.713Z,65.56
2017-01-19T02:57:40.468Z,65.37
2017-01-19T02:57:55.284Z,65.17
2017-01-19T02:58:09.840Z,65.46
2017-01-19T02:58:24.419Z,65.37
2017-01-19T02:58:39.117Z,65.66
2017-01-19T02:58:53.874Z,65.56
2017-01-19T02:59:08.612Z,65.56
2017-01-19T02:59:23.275Z,65.46
2017-01-19T02:59:37.897Z,65.37
2017-01-19T02:59:52.758Z,65.27
2017-01-19T03:00:07.616Z,65.46
2017-01-19T03:00:22.401Z,65.46
2017-01-19T03:00:37.128Z,65.46
2017-01-19T03:00:51.813Z,65.66
2017-01-19T03:01:06.714Z,65.75
2017-01-19T03:01:21.535Z,65.46
2017-01-19T03:01:36.317Z,65.75
2017-01-19T03:01:51.026Z,65.56
2017-01-19T03:02:05.784Z,65.46
2017-01-19T03:02:20.531Z,65.75
2017-01-19T03:02:35.389Z,65.66
2017-01-19T03:02:50.006Z,65.08
2017-01-19T03:03:04.611Z,65.17
2017-01-19T03:03:19.369Z,65.66
2017-01-19T03:03:34.238Z,65.66
2017-01-19T03:03:49.191Z,65.08
2017-01-19T03:04:03.860Z,65.17
2017-01-19T03:04:18.657Z,65.46
2017-01-19T03:04:33.518Z,65.56
2017-01-19T03:04:48.369Z,65.56
2017-01-19T03:05:03.084Z,65.75
2017-01-19T03:05:17.773Z,65.56
2017-01-19T03:05:32.519Z,65.17
2017-01-19T03:05:47.270Z,65.46
2017-01-19T03:06:02.161Z,65.75
2017-01-19T03:06:16.940Z,65.56
2017-01-19T03:06:31.713Z,65.37
2017-01-19T03:06:46.588Z,65.37
2017-01-19T03:07:01.366Z,65.37
2017-01-19T03:07:16.066Z,65.46
2017-01-19T03:07:30.848Z,65.37
2017-01-19T03:07:45.664Z,65.37
2017-01-19T03:08:00.551Z,65.66
2017-01-19T03:08:15.292Z,65.85
2017-01-19T03:08:29.986Z,65.66
2017-01-19T03:08:44.769Z,65.08
2017-01-19T03:08:59.555Z,65.27
2017-01-19T03:09:14.194Z,65.56
2017-01-19T03:09:28.909Z,65.56
2017-01-19T03:09:43.716Z,65.27
2017-01-19T03:09:58.375Z,65.17
2017-01-19T03:10:13.113Z,65.27
2017-01-19T03:10:27.932Z,65.46
2017-01-19T03:10:42.535Z,65.08
2017-01-19T03:10:57.369Z,64.89
2017-01-19T03:11:11.997Z,64.69
2017-01-19T03:11:26.703Z,64.98
2017-01-19T03:11:41.730Z,64.69